Munoz, Philippines
Current Conditions -  °F | °C
As of 2:00 AM on Friday 30 Jan 2015 (Local Time) from RPLC Reporting Station
Broken Clouds Broken Clouds  
Wind Chill: 73°   Ceiling: 10000
Heat Index: 73°   Visibility: 6mi
Dew Point: 68°   Wind: 5mph
Humidity: 83%   Direction: 320°NW
Pressure: 29.94"   Gusts: NA
Location:  15.72°N, 120.9°E
Report Text: RPLC 291800Z 32004KT 9999 SCT042 BKN100 23/20 Q1014 RMK NOSIG A2994
Loading
Personal Weather Stations






























Interactive Weather Map New forecast layout! Learn more

10-Day Weather Forecast

Advertisements
Track Severe Weather on mobile